Archival Weather

Eureka

Eureka, Canada (CWEU)

Report from: Wednesday, January 25, 2023 3:00 AM CST
Current time: Tuesday, February 27, 2024 5:22 AM CST

Current weather – Weather history – Daily summaries
Weather forecast

Present weatherIce crystals
Temperature-40.0°C (-40.0°F)
Wind chill-52.7°C (-62.9°F)
Dew point-45.0°C (-49.0°F)
Winds 7 kts (3.6 m/s, 8.1 mph) Vrb
Winds variableWinds variable from North-Northeast (30°) to East-Southeast (120°)
Visibility15 mi. (24.1 km)
Clouds Sky clear
Altimeter30.06 in.Hg (1018 mB)
Relative humidity58 %
Density altitude-7,645 ft. (-2,330 m)
Sea-level pressure102.0 kPa (1020 mB, 30.13 in.Hg)
Flight conditions Visual Meteorological Conditions
Raw dataCWEU 250900Z 10007KT 030V120 15SM IC SKC M40/M45 A3006 RMK SLP202
An error has occurred. This application may no longer respond until reloaded. Reload 🗙